sensor_id;sensor_type;location;lat;lon;timestamp;pressure;altitude;pressure_sealevel;temperature;humidity
3178;BME280;38141;42.666;23.344;2023-11-21T00:00:46;94509.03;;;4.52;100.00
3178;BME280;38141;42.666;23.344;2023-11-21T00:03:15;94500.13;;;4.32;100.00
3178;BME280;38141;42.666;23.344;2023-11-21T00:05:42;94501.00;;;4.36;100.00
3178;BME280;38141;42.666;23.344;2023-11-21T00:08:08;94501.09;;;4.40;100.00
3178;BME280;38141;42.666;23.344;2023-11-21T00:10:36;94504.56;;;4.40;100.00
3178;BME280;38141;42.666;23.344;2023-11-21T00:13:04;94499.00;;;4.49;100.00
3178;BME280;38141;42.666;23.344;2023-11-21T00:15:31;94501.75;;;4.53;100.00
3178;BME280;38141;42.666;23.344;2023-11-21T00:17:58;94509.16;;;4.59;100.00
3178;BME280;38141;42.666;23.344;2023-11-21T00:20:27;94505.91;;;4.50;100.00
3178;BME280;38141;42.666;23.344;2023-11-21T00:22:53;94509.47;;;4.54;100.00
3178;BME280;38141;42.666;23.344;2023-11-21T00:25:19;94507.06;;;4.33;100.00
3178;BME280;38141;42.666;23.344;2023-11-21T00:27:46;94488.66;;;4.32;100.00
3178;BME280;38141;42.666;23.344;2023-11-21T00:30:14;94498.50;;;4.28;100.00
3178;BME280;38141;42.666;23.344;2023-11-21T00:32:41;94498.09;;;4.26;100.00
3178;BME280;38141;42.666;23.344;2023-11-21T00:35:08;94490.66;;;4.35;100.00
3178;BME280;38141;42.666;23.344;2023-11-21T00:37:37;94497.63;;;4.39;100.00
3178;BME280;38141;42.666;23.344;2023-11-21T00:40:05;94497.19;;;4.53;100.00
3178;BME280;38141;42.666;23.344;2023-11-21T00:42:33;94487.06;;;4.46;100.00
3178;BME280;38141;42.666;23.344;2023-11-21T00:45:00;94489.34;;;4.44;100.00
3178;BME280;38141;42.666;23.344;2023-11-21T00:47:27;94495.03;;;4.59;100.00
3178;BME280;38141;42.666;23.344;2023-11-21T00:49:54;94497.53;;;4.52;100.00
3178;BME280;38141;42.666;23.344;2023-11-21T00:52:22;94507.47;;;4.51;100.00
3178;BME280;38141;42.666;23.344;2023-11-21T00:54:50;94502.63;;;4.57;100.00
3178;BME280;38141;42.666;23.344;2023-11-21T00:57:17;94487.72;;;4.40;100.00
3178;BME280;38141;42.666;23.344;2023-11-21T00:59:45;94491.31;;;4.47;100.00
3178;BME280;38141;42.666;23.344;2023-11-21T01:02:12;94474.22;;;4.36;100.00
3178;BME280;38141;42.666;23.344;2023-11-21T01:04:38;94487.00;;;4.27;100.00
3178;BME280;38141;42.666;23.344;2023-11-21T01:07:06;94483.88;;;4.41;100.00
3178;BME280;38141;42.666;23.344;2023-11-21T01:09:33;94485.44;;;4.42;100.00
3178;BME280;38141;42.666;23.344;2023-11-21T01:12:01;94484.84;;;4.33;100.00
3178;BME280;38141;42.666;23.344;2023-11-21T01:14:29;94478.38;;;4.18;100.00
3178;BME280;38141;42.666;23.344;2023-11-21T01:16:56;94481.84;;;4.19;100.00
3178;BME280;38141;42.666;23.344;2023-11-21T01:19:23;94482.81;;;3.95;100.00
3178;BME280;38141;42.666;23.344;2023-11-21T01:21:50;94473.28;;;3.82;100.00
3178;BME280;38141;42.666;23.344;2023-11-21T01:24:18;94489.53;;;3.89;100.00
3178;BME280;38141;42.666;23.344;2023-11-21T01:26:48;94491.88;;;4.06;100.00
3178;BME280;38141;42.666;23.344;2023-11-21T01:29:16;94490.13;;;3.98;100.00
3178;BME280;38141;42.666;23.344;2023-11-21T01:31:43;94492.13;;;4.01;100.00
3178;BME280;38141;42.666;23.344;2023-11-21T01:34:10;94485.13;;;3.96;100.00
3178;BME280;38141;42.666;23.344;2023-11-21T01:36:37;94474.59;;;3.88;100.00
3178;BME280;38141;42.666;23.344;2023-11-21T01:39:04;94482.97;;;4.02;100.00
3178;BME280;38141;42.666;23.344;2023-11-21T01:41:33;94489.53;;;4.20;100.00
3178;BME280;38141;42.666;23.344;2023-11-21T01:44:00;94491.44;;;4.20;100.00
3178;BME280;38141;42.666;23.344;2023-11-21T01:46:29;94495.41;;;3.94;100.00
3178;BME280;38141;42.666;23.344;2023-11-21T01:48:56;94489.03;;;3.99;100.00
3178;BME280;38141;42.666;23.344;2023-11-21T01:51:26;94477.34;;;3.91;100.00
3178;BME280;38141;42.666;23.344;2023-11-21T01:53:53;94465.19;;;3.63;100.00
3178;BME280;38141;42.666;23.344;2023-11-21T01:56:20;94471.03;;;3.68;100.00
3178;BME280;38141;42.666;23.344;2023-11-21T01:58:47;94458.25;;;3.46;100.00
3178;BME280;38141;42.666;23.344;2023-11-21T02:01:14;94485.63;;;3.71;100.00
3178;BME280;38141;42.666;23.344;2023-11-21T02:03:45;94476.38;;;3.68;100.00
3178;BME280;38141;42.666;23.344;2023-11-21T02:06:12;94464.56;;;3.53;100.00
3178;BME280;38141;42.666;23.344;2023-11-21T02:08:39;94464.56;;;3.53;100.00
3178;BME280;38141;42.666;23.344;2023-11-21T02:11:08;94484.63;;;3.47;100.00
3178;BME280;38141;42.666;23.344;2023-11-21T02:13:38;94483.44;;;3.45;100.00
3178;BME280;38141;42.666;23.344;2023-11-21T02:16:09;94485.34;;;3.44;100.00
3178;BME280;38141;42.666;23.344;2023-11-21T02:18:39;94484.88;;;3.42;100.00
3178;BME280;38141;42.666;23.344;2023-11-21T02:21:08;94482.41;;;3.49;100.00
3178;BME280;38141;42.666;23.344;2023-11-21T02:23:37;94475.91;;;3.35;100.00
3178;BME280;38141;42.666;23.344;2023-11-21T02:26:07;94482.81;;;3.36;100.00
3178;BME280;38141;42.666;23.344;2023-11-21T02:28:35;94481.00;;;3.40;100.00
3178;BME280;38141;42.666;23.344;2023-11-21T02:31:02;94477.91;;;3.38;100.00
3178;BME280;38141;42.666;23.344;2023-11-21T02:33:30;94462.75;;;3.57;100.00
3178;BME280;38141;42.666;23.344;2023-11-21T02:35:59;94468.69;;;3.51;100.00
3178;BME280;38141;42.666;23.344;2023-11-21T02:38:26;94455.00;;;3.25;100.00
3178;BME280;38141;42.666;23.344;2023-11-21T02:40:57;94471.75;;;3.37;100.00
3178;BME280;38141;42.666;23.344;2023-11-21T02:43:24;94456.41;;;3.34;100.00
3178;BME280;38141;42.666;23.344;2023-11-21T02:45:51;94469.47;;;3.51;100.00
3178;BME280;38141;42.666;23.344;2023-11-21T02:48:18;94458.84;;;3.39;100.00
3178;BME280;38141;42.666;23.344;2023-11-21T02:50:45;94466.72;;;3.48;100.00
3178;BME280;38141;42.666;23.344;2023-11-21T02:53:12;94463.09;;;3.56;100.00
3178;BME280;38141;42.666;23.344;2023-11-21T02:55:38;94464.19;;;3.55;100.00
3178;BME280;38141;42.666;23.344;2023-11-21T02:58:07;94471.47;;;3.70;100.00
3178;BME280;38141;42.666;23.344;2023-11-21T03:00:36;94481.22;;;3.78;100.00
3178;BME280;38141;42.666;23.344;2023-11-21T03:03:05;94466.50;;;3.84;100.00
3178;BME280;38141;42.666;23.344;2023-11-21T03:05:32;94457.25;;;3.66;100.00
3178;BME280;38141;42.666;23.344;2023-11-21T03:08:01;94453.25;;;3.44;100.00
3178;BME280;38141;42.666;23.344;2023-11-21T03:10:27;94459.22;;;3.53;100.00
3178;BME280;38141;42.666;23.344;2023-11-21T03:12:54;94464.78;;;3.33;100.00
3178;BME280;38141;42.666;23.344;2023-11-21T03:15:24;94462.66;;;3.54;100.00
3178;BME280;38141;42.666;23.344;2023-11-21T03:17:51;94461.13;;;3.53;100.00
3178;BME280;38141;42.666;23.344;2023-11-21T03:20:18;94469.63;;;3.43;100.00
3178;BME280;38141;42.666;23.344;2023-11-21T03:22:44;94462.91;;;3.49;100.00
3178;BME280;38141;42.666;23.344;2023-11-21T03:25:12;94440.72;;;3.33;100.00
3178;BME280;38141;42.666;23.344;2023-11-21T03:27:39;94480.84;;;3.48;100.00
3178;BME280;38141;42.666;23.344;2023-11-21T03:30:08;94458.25;;;3.46;100.00
3178;BME280;38141;42.666;23.344;2023-11-21T03:32:37;94482.75;;;3.64;100.00
3178;BME280;38141;42.666;23.344;2023-11-21T03:35:05;94480.59;;;3.53;100.00
3178;BME280;38141;42.666;23.344;2023-11-21T03:37:32;94474.97;;;3.43;100.00
3178;BME280;38141;42.666;23.344;2023-11-21T03:39:59;94481.09;;;3.43;100.00
3178;BME280;38141;42.666;23.344;2023-11-21T03:42:29;94475.81;;;3.31;100.00
3178;BME280;38141;42.666;23.344;2023-11-21T03:44:56;94474.19;;;3.42;100.00
3178;BME280;38141;42.666;23.344;2023-11-21T03:47:23;94470.78;;;3.57;100.00
3178;BME280;38141;42.666;23.344;2023-11-21T03:49:51;94460.00;;;3.54;100.00
3178;BME280;38141;42.666;23.344;2023-11-21T03:52:18;94461.13;;;3.53;100.00
3178;BME280;38141;42.666;23.344;2023-11-21T03:54:45;94449.88;;;3.47;100.00
3178;BME280;38141;42.666;23.344;2023-11-21T03:57:12;94452.22;;;3.49;100.00
3178;BME280;38141;42.666;23.344;2023-11-21T03:59:41;94457.81;;;3.44;100.00
3178;BME280;38141;42.666;23.344;2023-11-21T04:02:09;94459.47;;;3.48;100.00
3178;BME280;38141;42.666;23.344;2023-11-21T04:04:38;94456.91;;;3.68;100.00
3178;BME280;38141;42.666;23.344;2023-11-21T04:07:06;94442.22;;;3.62;100.00
3178;BME280;38141;42.666;23.344;2023-11-21T04:09:33;94435.66;;;3.59;100.00
3178;BME280;38141;42.666;23.344;2023-11-21T04:12:01;94427.03;;;3.50;100.00
3178;BME280;38141;42.666;23.344;2023-11-21T04:14:29;94448.28;;;3.58;100.00
3178;BME280;38141;42.666;23.344;2023-11-21T04:16:55;94436.44;;;3.59;100.00
3178;BME280;38141;42.666;23.344;2023-11-21T04:19:22;94445.94;;;3.57;100.00
3178;BME280;38141;42.666;23.344;2023-11-21T04:21:50;94445.47;;;3.55;100.00
3178;BME280;38141;42.666;23.344;2023-11-21T04:24:18;94442.16;;;3.58;100.00
3178;BME280;38141;42.666;23.344;2023-11-21T04:26:45;94433.94;;;3.67;100.00
3178;BME280;38141;42.666;23.344;2023-11-21T04:29:12;94443.44;;;3.64;100.00
3178;BME280;38141;42.666;23.344;2023-11-21T04:31:39;94445.19;;;3.72;100.00
3178;BME280;38141;42.666;23.344;2023-11-21T04:34:07;94451.72;;;3.75;100.00
3178;BME280;38141;42.666;23.344;2023-11-21T04:36:34;94453.00;;;3.65;100.00
3178;BME280;38141;42.666;23.344;2023-11-21T04:39:03;94447.13;;;3.59;100.00
3178;BME280;38141;42.666;23.344;2023-11-21T04:41:33;94443.19;;;3.85;100.00
3178;BME280;38141;42.666;23.344;2023-11-21T04:44:00;94442.31;;;3.65;100.00
3178;BME280;38141;42.666;23.344;2023-11-21T04:46:27;94449.72;;;3.40;100.00
3178;BME280;38141;42.666;23.344;2023-11-21T04:48:54;94444.00;;;3.42;100.00
3178;BME280;38141;42.666;23.344;2023-11-21T04:51:21;94451.38;;;3.76;100.00
3178;BME280;38141;42.666;23.344;2023-11-21T04:53:48;94443.38;;;3.76;100.00
3178;BME280;38141;42.666;23.344;2023-11-21T04:56:15;94453.19;;;3.88;100.00
3178;BME280;38141;42.666;23.344;2023-11-21T04:58:44;94450.16;;;4.05;100.00
3178;BME280;38141;42.666;23.344;2023-11-21T05:01:11;94452.59;;;3.63;100.00
3178;BME280;38141;42.666;23.344;2023-11-21T05:03:37;94456.66;;;3.88;100.00
3178;BME280;38141;42.666;23.344;2023-11-21T05:06:06;94452.50;;;3.75;100.00
3178;BME280;38141;42.666;23.344;2023-11-21T05:08:33;94457.06;;;3.75;100.00
3178;BME280;38141;42.666;23.344;2023-11-21T05:11:00;94454.72;;;3.57;100.00
3178;BME280;38141;42.666;23.344;2023-11-21T05:13:29;94454.06;;;3.76;100.00
3178;BME280;38141;42.666;23.344;2023-11-21T05:16:00;94434.00;;;3.54;100.00
3178;BME280;38141;42.666;23.344;2023-11-21T05:18:29;94431.88;;;3.76;100.00
3178;BME280;38141;42.666;23.344;2023-11-21T05:20:56;94440.44;;;3.81;100.00
3178;BME280;38141;42.666;23.344;2023-11-21T05:23:23;94445.34;;;3.79;100.00
3178;BME280;38141;42.666;23.344;2023-11-21T05:25:50;94438.00;;;3.76;100.00
3178;BME280;38141;42.666;23.344;2023-11-21T05:28:17;94435.59;;;3.71;100.00
3178;BME280;38141;42.666;23.344;2023-11-21T05:30:44;94444.97;;;3.65;100.00
3178;BME280;38141;42.666;23.344;2023-11-21T05:33:12;94456.50;;;3.81;100.00
3178;BME280;38141;42.666;23.344;2023-11-21T05:35:39;94458.53;;;3.88;100.00
3178;BME280;38141;42.666;23.344;2023-11-21T05:38:06;94467.63;;;3.99;100.00
3178;BME280;38141;42.666;23.344;2023-11-21T05:40:33;94462.25;;;3.83;100.00
3178;BME280;38141;42.666;23.344;2023-11-21T05:43:00;94462.69;;;3.85;100.00
3178;BME280;38141;42.666;23.344;2023-11-21T05:45:27;94463.03;;;3.99;100.00
3178;BME280;38141;42.666;23.344;2023-11-21T05:47:55;94452.59;;;3.94;100.00
3178;BME280;38141;42.666;23.344;2023-11-21T05:50:23;94458.88;;;4.02;100.00
3178;BME280;38141;42.666;23.344;2023-11-21T05:52:50;94453.97;;;4.04;100.00
3178;BME280;38141;42.666;23.344;2023-11-21T05:55:17;94450.56;;;4.23;100.00
3178;BME280;38141;42.666;23.344;2023-11-21T05:57:46;94456.81;;;4.27;100.00
3178;BME280;38141;42.666;23.344;2023-11-21T06:00:14;94465.00;;;4.34;100.00
3178;BME280;38141;42.666;23.344;2023-11-21T08:00:30;94465.72;;;15.55;54.68
3178;BME280;38141;42.666;23.344;2023-11-21T08:02:58;94452.47;;;14.67;56.26
3178;BME280;38141;42.666;23.344;2023-11-21T08:05:25;94478.81;;;13.94;58.78
3178;BME280;38141;42.666;23.344;2023-11-21T08:07:52;94470.25;;;13.65;59.60
3178;BME280;38141;42.666;23.344;2023-11-21T08:10:19;94463.91;;;13.04;61.87
3178;BME280;38141;42.666;23.344;2023-11-21T08:12:47;94439.16;;;12.57;64.19
3178;BME280;38141;42.666;23.344;2023-11-21T08:15:16;94467.00;;;12.10;67.49
3178;BME280;38141;42.666;23.344;2023-11-21T08:17:45;94463.94;;;13.00;64.38
3178;BME280;38141;42.666;23.344;2023-11-21T08:20:12;94451.84;;;13.12;62.51
3178;BME280;38141;42.666;23.344;2023-11-21T08:22:41;94470.06;;;13.49;62.67
3178;BME280;38141;42.666;23.344;2023-11-21T08:25:09;94471.88;;;14.46;59.87
3178;BME280;38141;42.666;23.344;2023-11-21T08:27:35;94476.41;;;13.99;60.30
3178;BME280;38141;42.666;23.344;2023-11-21T08:30:03;94450.13;;;13.89;59.79
3178;BME280;38141;42.666;23.344;2023-11-21T08:32:30;94442.00;;;14.16;60.40
3178;BME280;38141;42.666;23.344;2023-11-21T08:35:00;94454.38;;;15.37;56.30
3178;BME280;38141;42.666;23.344;2023-11-21T08:37:27;94480.22;;;16.79;53.38
3178;BME280;38141;42.666;23.344;2023-11-21T08:39:57;94457.81;;;17.17;50.17
3178;BME280;38141;42.666;23.344;2023-11-21T08:42:25;94436.97;;;14.88;54.92
3178;BME280;38141;42.666;23.344;2023-11-21T08:44:55;94458.16;;;15.63;54.28
3178;BME280;38141;42.666;23.344;2023-11-21T08:47:25;94453.03;;;15.45;53.70
3178;BME280;38141;42.666;23.344;2023-11-21T08:49:52;94461.53;;;15.07;55.13
3178;BME280;38141;42.666;23.344;2023-11-21T08:52:20;94450.38;;;15.41;54.68
3178;BME280;38141;42.666;23.344;2023-11-21T08:54:48;94445.94;;;15.51;54.55
3178;BME280;38141;42.666;23.344;2023-11-21T08:57:21;94446.84;;;15.01;55.39
3178;BME280;38141;42.666;23.344;2023-11-21T08:59:48;94448.59;;;15.94;53.98
3178;BME280;38141;42.666;23.344;2023-11-21T09:02:20;94432.13;;;16.82;51.70
3178;BME280;38141;42.666;23.344;2023-11-21T09:04:48;94437.41;;;17.92;49.35
3178;BME280;38141;42.666;23.344;2023-11-21T09:07:16;94423.00;;;16.56;50.25
3178;BME280;38141;42.666;23.344;2023-11-21T09:09:45;94423.53;;;14.27;55.72
3178;BME280;38141;42.666;23.344;2023-11-21T09:12:13;94413.13;;;13.95;57.83
3178;BME280;38141;42.666;23.344;2023-11-21T09:14:40;94360.47;;;12.09;63.62
3178;BME280;38141;42.666;23.344;2023-11-21T09:17:09;94386.41;;;12.58;65.51
3178;BME280;38141;42.666;23.344;2023-11-21T09:19:39;94392.88;;;12.30;66.99
3178;BME280;38141;42.666;23.344;2023-11-21T09:22:06;94379.81;;;11.52;72.64
3178;BME280;38141;42.666;23.344;2023-11-21T09:24:34;94375.34;;;11.87;73.63
3178;BME280;38141;42.666;23.344;2023-11-21T09:27:02;94373.56;;;12.21;71.19
3178;BME280;38141;42.666;23.344;2023-11-21T09:29:30;94362.28;;;11.75;74.23
3178;BME280;38141;42.666;23.344;2023-11-21T09:31:57;94376.53;;;11.89;75.80
3178;BME280;38141;42.666;23.344;2023-11-21T09:34:24;94344.41;;;11.84;75.46
3178;BME280;38141;42.666;23.344;2023-11-21T09:36:53;94347.41;;;11.97;75.08
3178;BME280;38141;42.666;23.344;2023-11-21T09:39:20;94338.56;;;12.34;72.76
3178;BME280;38141;42.666;23.344;2023-11-21T09:41:51;94343.38;;;12.94;70.09
3178;BME280;38141;42.666;23.344;2023-11-21T09:44:29;94332.25;;;12.81;68.84
3178;BME280;38141;42.666;23.344;2023-11-21T09:46:59;94329.88;;;12.53;70.38
3178;BME280;38141;42.666;23.344;2023-11-21T09:49:26;94332.53;;;12.90;68.34
3178;BME280;38141;42.666;23.344;2023-11-21T09:51:55;94316.41;;;13.71;65.57
3178;BME280;38141;42.666;23.344;2023-11-21T09:54:22;94302.34;;;13.76;67.96
3178;BME280;38141;42.666;23.344;2023-11-21T09:56:49;94290.56;;;13.82;63.92
3178;BME280;38141;42.666;23.344;2023-11-21T09:59:16;94275.84;;;13.57;64.87
3178;BME280;38141;42.666;23.344;2023-11-21T10:01:45;94282.44;;;13.29;66.33
3178;BME280;38141;42.666;23.344;2023-11-21T10:04:13;94296.56;;;14.44;63.59
3178;BME280;38141;42.666;23.344;2023-11-21T10:06:41;94264.56;;;14.28;61.62
3178;BME280;38141;42.666;23.344;2023-11-21T10:09:09;94280.63;;;14.65;61.44
3178;BME280;38141;42.666;23.344;2023-11-21T10:11:39;94276.19;;;14.52;61.55
3178;BME280;38141;42.666;23.344;2023-11-21T10:14:08;94284.72;;;14.74;58.93
3178;BME280;38141;42.666;23.344;2023-11-21T10:16:38;94235.38;;;14.29;60.74
3178;BME280;38141;42.666;23.344;2023-11-21T10:19:09;94269.78;;;15.37;58.88
3178;BME280;38141;42.666;23.344;2023-11-21T10:21:37;94274.53;;;15.53;57.42
3178;BME280;38141;42.666;23.344;2023-11-21T10:24:05;94267.31;;;15.79;57.14
3178;BME280;38141;42.666;23.344;2023-11-21T10:26:32;94258.81;;;16.38;56.04
3178;BME280;38141;42.666;23.344;2023-11-21T10:29:01;94251.09;;;16.49;53.31
3178;BME280;38141;42.666;23.344;2023-11-21T10:31:29;94244.53;;;16.63;52.66
3178;BME280;38141;42.666;23.344;2023-11-21T10:36:40;94252.22;;;16.52;51.59
3178;BME280;38141;42.666;23.344;2023-11-21T10:39:11;94244.66;;;16.43;52.60
3178;BME280;38141;42.666;23.344;2023-11-21T10:41:43;94237.44;;;16.65;51.79
3178;BME280;38141;42.666;23.344;2023-11-21T10:44:10;94234.44;;;17.30;50.71
3178;BME280;38141;42.666;23.344;2023-11-21T10:46:40;94239.66;;;17.24;49.52
3178;BME280;38141;42.666;23.344;2023-11-21T10:49:08;94237.28;;;17.39;49.78
3178;BME280;38141;42.666;23.344;2023-11-21T10:51:35;94244.34;;;16.99;49.94
3178;BME280;38141;42.666;23.344;2023-11-21T10:54:04;94235.19;;;16.76;50.72
3178;BME280;38141;42.666;23.344;2023-11-21T10:56:31;94237.91;;;16.48;51.66
3178;BME280;38141;42.666;23.344;2023-11-21T10:59:01;94227.06;;;16.15;52.87
3178;BME280;38141;42.666;23.344;2023-11-21T11:01:29;94225.59;;;16.11;53.03
3178;BME280;38141;42.666;23.344;2023-11-21T11:03:57;94222.31;;;16.03;53.19
3178;BME280;38141;42.666;23.344;2023-11-21T11:06:26;94221.13;;;15.20;55.09
3178;BME280;38141;42.666;23.344;2023-11-21T11:08:55;94216.25;;;15.63;54.98
3178;BME280;38141;42.666;23.344;2023-11-21T11:11:25;94211.31;;;15.22;55.75
3178;BME280;38141;42.666;23.344;2023-11-21T11:13:52;94222.41;;;15.15;55.80
3178;BME280;38141;42.666;23.344;2023-11-21T11:16:23;94215.84;;;14.57;57.74
3178;BME280;38141;42.666;23.344;2023-11-21T11:18:51;94205.56;;;14.64;56.92
3178;BME280;38141;42.666;23.344;2023-11-21T11:21:26;94202.25;;;14.93;56.68
3178;BME280;38141;42.666;23.344;2023-11-21T11:24:08;94190.97;;;14.75;57.84
3178;BME280;38141;42.666;23.344;2023-11-21T11:26:47;94161.75;;;14.39;56.80
3178;BME280;38141;42.666;23.344;2023-11-21T11:29:23;94167.78;;;14.27;57.66
3178;BME280;38141;42.666;23.344;2023-11-21T11:32:02;94168.94;;;13.40;59.99
3178;BME280;38141;42.666;23.344;2023-11-21T11:34:33;94176.75;;;13.85;60.77
3178;BME280;38141;42.666;23.344;2023-11-21T11:37:05;94171.69;;;14.06;58.68
3178;BME280;38141;42.666;23.344;2023-11-21T11:39:36;94175.50;;;14.09;57.82
3178;BME280;38141;42.666;23.344;2023-11-21T11:42:07;94171.47;;;13.74;58.08
3178;BME280;38141;42.666;23.344;2023-11-21T11:44:50;94165.97;;;13.31;60.07
3178;BME280;38141;42.666;23.344;2023-11-21T11:47:25;94169.06;;;13.79;59.01
3178;BME280;38141;42.666;23.344;2023-11-21T11:49:58;94175.28;;;14.00;59.27
3178;BME280;38141;42.666;23.344;2023-11-21T11:52:38;94183.59;;;13.69;61.04
3178;BME280;38141;42.666;23.344;2023-11-21T11:55:07;94191.75;;;12.92;65.48
3178;BME280;38141;42.666;23.344;2023-11-21T11:57:37;94168.94;;;13.17;67.99
3178;BME280;38141;42.666;23.344;2023-11-21T12:00:13;94185.03;;;13.27;70.38
3178;BME280;38141;42.666;23.344;2023-11-21T12:02:45;94171.69;;;13.13;69.20
3178;BME280;38141;42.666;23.344;2023-11-21T12:05:14;94164.31;;;13.14;70.07
3178;BME280;38141;42.666;23.344;2023-11-21T12:07:45;94174.38;;;13.17;69.49
3178;BME280;38141;42.666;23.344;2023-11-21T12:10:14;94176.75;;;13.38;71.86
3178;BME280;38141;42.666;23.344;2023-11-21T12:12:45;94170.00;;;13.46;72.28
3178;BME280;38141;42.666;23.344;2023-11-21T12:15:12;94184.25;;;13.30;73.81
3178;BME280;38141;42.666;23.344;2023-11-21T12:17:40;94184.50;;;12.82;83.05
3178;BME280;38141;42.666;23.344;2023-11-21T12:20:10;94194.31;;;12.76;89.19
3178;BME280;38141;42.666;23.344;2023-11-21T12:22:44;94167.91;;;12.16;96.00
3178;BME280;38141;42.666;23.344;2023-11-21T12:25:21;94165.84;;;11.93;100.00
3178;BME280;38141;42.666;23.344;2023-11-21T12:27:51;94183.56;;;12.01;100.00
3178;BME280;38141;42.666;23.344;2023-11-21T12:30:19;94173.34;;;12.16;100.00
3178;BME280;38141;42.666;23.344;2023-11-21T12:32:49;94185.75;;;12.14;100.00
3178;BME280;38141;42.666;23.344;2023-11-21T12:35:18;94183.47;;;12.09;100.00
3178;BME280;38141;42.666;23.344;2023-11-21T12:37:47;94179.53;;;12.13;100.00
3178;BME280;38141;42.666;23.344;2023-11-21T12:40:15;94182.25;;;12.17;100.00
3178;BME280;38141;42.666;23.344;2023-11-21T12:42:44;94173.66;;;12.22;100.00
3178;BME280;38141;42.666;23.344;2023-11-21T12:45:22;94175.03;;;12.03;100.00
3178;BME280;38141;42.666;23.344;2023-11-21T12:47:53;94158.91;;;11.89;100.00
3178;BME280;38141;42.666;23.344;2023-11-21T12:50:22;94152.81;;;11.78;100.00
3178;BME280;38141;42.666;23.344;2023-11-21T12:52:52;94168.22;;;11.88;100.00
3178;BME280;38141;42.666;23.344;2023-11-21T12:55:20;94142.22;;;11.90;100.00
3178;BME280;38141;42.666;23.344;2023-11-21T12:57:49;94156.19;;;11.89;100.00
3178;BME280;38141;42.666;23.344;2023-11-21T13:00:18;94135.78;;;11.77;100.00
3178;BME280;38141;42.666;23.344;2023-11-21T13:02:55;94145.50;;;11.71;100.00
3178;BME280;38141;42.666;23.344;2023-11-21T13:05:25;94127.25;;;11.38;100.00
3178;BME280;38141;42.666;23.344;2023-11-21T13:07:52;94137.00;;;11.73;100.00
3178;BME280;38141;42.666;23.344;2023-11-21T13:10:22;94120.34;;;11.74;100.00
3178;BME280;38141;42.666;23.344;2023-11-21T13:12:51;94135.63;;;11.91;100.00
3178;BME280;38141;42.666;23.344;2023-11-21T13:15:19;94134.66;;;11.75;100.00
3178;BME280;38141;42.666;23.344;2023-11-21T13:17:46;94132.72;;;11.75;100.00
3178;BME280;38141;42.666;23.344;2023-11-21T13:20:14;94142.28;;;11.87;100.00
3178;BME280;38141;42.666;23.344;2023-11-21T13:22:47;94038.84;;;11.21;100.00
3178;BME280;38141;42.666;23.344;2023-11-21T13:25:15;94112.84;;;11.48;100.00
3178;BME280;38141;42.666;23.344;2023-11-21T13:27:43;94128.53;;;11.67;100.00
3178;BME280;38141;42.666;23.344;2023-11-21T13:30:12;94092.09;;;11.34;100.00
3178;BME280;38141;42.666;23.344;2023-11-21T13:32:42;94118.59;;;11.91;100.00
3178;BME280;38141;42.666;23.344;2023-11-21T13:35:09;94120.03;;;11.65;100.00
3178;BME280;38141;42.666;23.344;2023-11-21T13:37:48;94115.81;;;11.60;100.00
3178;BME280;38141;42.666;23.344;2023-11-21T13:40:20;94128.44;;;11.78;100.00
3178;BME280;38141;42.666;23.344;2023-11-21T13:42:51;94116.50;;;11.68;100.00
3178;BME280;38141;42.666;23.344;2023-11-21T13:45:21;94110.91;;;11.45;100.00
3178;BME280;38141;42.666;23.344;2023-11-21T13:47:49;94107.97;;;11.73;100.00
3178;BME280;38141;42.666;23.344;2023-11-21T13:50:23;94115.59;;;11.82;100.00
3178;BME280;38141;42.666;23.344;2023-11-21T13:52:56;94107.13;;;11.80;95.58
3178;BME280;38141;42.666;23.344;2023-11-21T13:55:23;94112.50;;;11.83;97.81
3178;BME280;38141;42.666;23.344;2023-11-21T13:57:54;94115.31;;;11.73;99.52
3178;BME280;38141;42.666;23.344;2023-11-21T14:00:21;94107.13;;;11.80;99.20
3178;BME280;38141;42.666;23.344;2023-11-21T14:03:07;94073.94;;;11.28;100.00
3178;BME280;38141;42.666;23.344;2023-11-21T14:05:43;94101.88;;;11.18;100.00
3178;BME280;38141;42.666;23.344;2023-11-21T14:08:13;94105.28;;;11.29;100.00
3178;BME280;38141;42.666;23.344;2023-11-21T14:10:42;94102.50;;;11.36;100.00
3178;BME280;38141;42.666;23.344;2023-11-21T14:13:11;94095.66;;;11.24;100.00
3178;BME280;38141;42.666;23.344;2023-11-21T14:15:39;94106.34;;;11.38;100.00
3178;BME280;38141;42.666;23.344;2023-11-21T14:18:09;94117.25;;;11.31;100.00
3178;BME280;38141;42.666;23.344;2023-11-21T14:20:37;94115.22;;;11.42;100.00
3178;BME280;38141;42.666;23.344;2023-11-21T14:23:05;94105.75;;;11.20;100.00
3178;BME280;38141;42.666;23.344;2023-11-21T14:25:34;94113.06;;;11.23;100.00
3178;BME280;38141;42.666;23.344;2023-11-21T14:28:02;94104.16;;;11.23;100.00
3178;BME280;38141;42.666;23.344;2023-11-21T14:30:30;94118.19;;;11.10;100.00
3178;BME280;38141;42.666;23.344;2023-11-21T14:33:01;94096.09;;;11.19;100.00
3178;BME280;38141;42.666;23.344;2023-11-21T14:35:27;94110.38;;;11.20;100.00
3178;BME280;38141;42.666;23.344;2023-11-21T14:37:55;94119.94;;;11.31;100.00
3178;BME280;38141;42.666;23.344;2023-11-21T14:40:23;94104.84;;;11.34;100.00
3178;BME280;38141;42.666;23.344;2023-11-21T14:42:52;94107.44;;;11.03;100.00
3178;BME280;38141;42.666;23.344;2023-11-21T14:45:22;94102.91;;;10.90;100.00
3178;BME280;38141;42.666;23.344;2023-11-21T14:47:51;94095.25;;;10.78;100.00
3178;BME280;38141;42.666;23.344;2023-11-21T14:50:28;94074.84;;;10.69;100.00
3178;BME280;38141;42.666;23.344;2023-11-21T14:53:16;94107.06;;;11.01;100.00
3178;BME280;38141;42.666;23.344;2023-11-21T14:55:56;94068.16;;;10.85;100.00
3178;BME280;38141;42.666;23.344;2023-11-21T14:58:27;94086.59;;;10.97;100.00
3178;BME280;38141;42.666;23.344;2023-11-21T15:00:56;94090.47;;;10.96;100.00
3178;BME280;38141;42.666;23.344;2023-11-21T15:03:27;94054.50;;;10.51;100.00
3178;BME280;38141;42.666;23.344;2023-11-21T15:06:12;94110.38;;;10.72;100.00